createdAt,value
2018-12-05T00:02:25.371Z,3.69
2018-12-05T00:04:55.211Z,3.65
2018-12-05T00:07:25.302Z,3.64
2018-12-05T00:09:54.990Z,3.64
2018-12-05T00:12:24.817Z,3.58
2018-12-05T00:14:54.605Z,3.52
2018-12-05T00:17:24.401Z,3.46
2018-12-05T00:19:54.090Z,3.44
2018-12-05T00:22:23.847Z,3.49
2018-12-05T00:24:53.617Z,3.48
2018-12-05T00:27:23.530Z,3.50
2018-12-05T00:29:53.217Z,3.62
2018-12-05T00:32:23.108Z,3.69
2018-12-05T00:34:53.186Z,3.79
2018-12-05T00:37:23.082Z,3.79
2018-12-05T00:39:52.871Z,3.87
2018-12-05T00:42:22.663Z,3.89
2018-12-05T00:44:53.490Z,3.88
2018-12-05T00:47:23.210Z,3.94
2018-12-05T00:49:52.890Z,4.02
2018-12-05T00:52:22.590Z,4.01
2018-12-05T00:54:52.378Z,4.01
2018-12-05T00:57:22.227Z,3.99
2018-12-05T00:59:51.927Z,4.00
2018-12-05T01:02:21.793Z,4.04
2018-12-05T01:04:51.474Z,4.04
2018-12-05T01:07:21.267Z,4.06
2018-12-05T01:09:51.071Z,4.05
2018-12-05T01:12:20.790Z,4.16
2018-12-05T01:14:50.499Z,4.18
2018-12-05T01:17:21.098Z,4.22
2018-12-05T01:19:50.910Z,4.29
2018-12-05T01:22:21.596Z,4.30
2018-12-05T01:24:51.484Z,4.36
2018-12-05T01:27:21.938Z,4.32
2018-12-05T01:29:51.817Z,4.25
2018-12-05T01:32:21.671Z,4.17
2018-12-05T01:34:51.503Z,4.07
2018-12-05T01:37:21.825Z,4.06
2018-12-05T01:39:51.730Z,4.03
2018-12-05T01:42:21.633Z,3.99
2018-12-05T01:44:56.084Z,4.02
2018-12-05T01:47:25.986Z,4.02
2018-12-05T01:49:55.863Z,3.99
2018-12-05T01:52:25.610Z,4.07
2018-12-05T01:54:55.362Z,4.04
2018-12-05T01:57:25.146Z,3.99
2018-12-05T01:59:54.946Z,3.89
2018-12-05T02:02:24.710Z,3.85
2018-12-05T02:04:54.458Z,3.81
2018-12-05T02:07:24.174Z,3.69
2018-12-05T02:09:54.206Z,3.58
2018-12-05T02:12:24.007Z,3.43
2018-12-05T02:14:53.814Z,3.28
2018-12-05T02:17:23.727Z,3.22
2018-12-05T02:19:53.451Z,3.10
2018-12-05T02:22:23.167Z,3.04
2018-12-05T02:24:53.514Z,2.96
2018-12-05T02:27:23.346Z,2.89
2018-12-05T02:29:58.225Z,2.87
2018-12-05T02:32:28.000Z,2.87
2018-12-05T02:34:57.962Z,2.95
2018-12-05T02:37:27.705Z,2.95
2018-12-05T02:39:57.568Z,2.93
2018-12-05T02:42:27.288Z,3.02
2018-12-05T02:44:57.523Z,2.95
2018-12-05T02:47:27.498Z,2.91
2018-12-05T02:49:57.337Z,2.84
2018-12-05T02:52:27.358Z,2.84
2018-12-05T02:54:57.158Z,2.86
2018-12-05T02:57:26.866Z,2.90
2018-12-05T02:59:56.791Z,2.81
2018-12-05T03:02:26.542Z,2.80
2018-12-05T03:04:56.396Z,2.82
2018-12-05T03:07:26.118Z,2.81
2018-12-05T03:09:56.047Z,2.84
2018-12-05T03:12:25.915Z,2.92
2018-12-05T03:14:55.617Z,2.86
2018-12-05T03:17:25.669Z,2.89
2018-12-05T03:19:55.539Z,2.96
2018-12-05T03:22:25.256Z,2.94
2018-12-05T03:24:55.027Z,2.92
2018-12-05T03:27:24.833Z,2.92
2018-12-05T03:29:54.743Z,2.95
2018-12-05T03:32:26.409Z,3.00
2018-12-05T03:34:56.398Z,3.07
2018-12-05T03:37:26.234Z,3.08
2018-12-05T03:39:56.060Z,3.22
2018-12-05T03:42:25.876Z,3.22
2018-12-05T03:44:55.691Z,3.19
2018-12-05T03:47:25.419Z,3.21
2018-12-05T03:50:00.601Z,3.34
2018-12-05T03:52:31.259Z,3.32
2018-12-05T03:55:03.074Z,3.37
2018-12-05T03:57:33.094Z,3.32
2018-12-05T04:00:03.026Z,3.25
2018-12-05T04:02:33.292Z,3.32
2018-12-05T04:05:03.250Z,3.20
2018-12-05T04:07:33.220Z,3.02
2018-12-05T04:10:03.820Z,2.68
2018-12-05T04:12:40.441Z,2.55
2018-12-05T04:15:06.173Z,2.38
2018-12-05T04:17:35.854Z,2.28
2018-12-05T04:20:05.678Z,2.24
2018-12-05T04:22:35.523Z,2.13
2018-12-05T04:25:05.468Z,1.95
2018-12-05T04:27:35.466Z,1.86
2018-12-05T04:30:05.728Z,1.88
2018-12-05T04:32:37.539Z,1.84
2018-12-05T04:35:07.443Z,1.83
2018-12-05T04:37:37.213Z,1.85
2018-12-05T04:40:07.264Z,1.90
2018-12-05T04:42:37.006Z,1.87
2018-12-05T04:45:06.819Z,1.97
2018-12-05T04:47:36.651Z,2.02
2018-12-05T04:50:06.808Z,2.11
2018-12-05T04:52:36.713Z,2.22
2018-12-05T04:55:06.621Z,2.37
2018-12-05T04:57:36.607Z,2.43
2018-12-05T05:00:07.589Z,2.51
2018-12-05T05:02:37.402Z,2.58
2018-12-05T05:05:07.198Z,2.60
2018-12-05T05:07:37.127Z,2.72
2018-12-05T05:10:07.030Z,2.77
2018-12-05T05:12:36.814Z,2.79
2018-12-05T05:15:06.710Z,2.68
2018-12-05T05:17:36.475Z,2.63
2018-12-05T05:20:06.457Z,2.57
2018-12-05T05:22:36.311Z,2.46
2018-12-05T05:25:06.014Z,2.34
2018-12-05T05:27:35.771Z,2.26
2018-12-05T05:30:06.045Z,2.18
2018-12-05T05:32:35.980Z,2.14
2018-12-05T05:35:05.815Z,2.14
2018-12-05T05:37:35.730Z,2.13
2018-12-05T05:40:05.740Z,2.17
2018-12-05T05:42:35.602Z,2.15
2018-12-05T05:45:05.475Z,2.24
2018-12-05T05:47:35.234Z,2.19
2018-12-05T05:50:05.264Z,2.29
2018-12-05T05:52:34.958Z,2.30
2018-12-05T05:55:05.210Z,2.32
2018-12-05T05:57:34.978Z,2.31
2018-12-05T06:00:06.119Z,2.32
2018-12-05T06:02:37.034Z,2.32
2018-12-05T06:05:07.031Z,2.35
2018-12-05T06:07:36.805Z,2.38
2018-12-05T06:10:07.479Z,2.40
2018-12-05T06:12:37.339Z,2.41
2018-12-05T06:15:08.655Z,2.46
2018-12-05T06:17:38.639Z,2.45
2018-12-05T06:20:08.381Z,2.48
2018-12-05T06:22:38.099Z,2.48
2018-12-05T06:25:08.071Z,2.55
2018-12-05T06:27:38.174Z,2.61
2018-12-05T06:30:08.206Z,2.67
2018-12-05T06:32:37.914Z,2.70
2018-12-05T06:35:07.878Z,2.75
2018-12-05T06:37:37.958Z,2.80
2018-12-05T06:40:07.974Z,2.75
2018-12-05T06:42:37.833Z,2.86
2018-12-05T06:45:07.762Z,2.75
2018-12-05T06:47:37.558Z,2.60
2018-12-05T06:50:08.175Z,2.56
2018-12-05T06:52:37.974Z,2.53
2018-12-05T06:55:07.817Z,2.39
2018-12-05T06:57:37.572Z,2.41
2018-12-05T07:00:08.328Z,2.56
2018-12-05T07:02:39.025Z,2.42
2018-12-05T07:05:08.819Z,2.54
2018-12-05T07:07:38.556Z,2.45
2018-12-05T07:10:08.542Z,2.55
2018-12-05T07:12:38.294Z,2.52
2018-12-05T07:15:08.392Z,2.43
2018-12-05T07:17:38.165Z,2.40
2018-12-05T07:20:09.120Z,2.41
2018-12-05T07:22:38.826Z,2.50
2018-12-05T07:25:08.760Z,2.58
2018-12-05T07:27:38.514Z,2.59
2018-12-05T07:30:08.439Z,2.63
2018-12-05T07:32:38.194Z,2.73
2018-12-05T07:35:09.030Z,2.69
2018-12-05T07:37:38.816Z,2.69
2018-12-05T07:40:08.550Z,2.66
2018-12-05T07:42:38.342Z,2.70
2018-12-05T07:45:08.199Z,2.71
2018-12-05T07:47:38.022Z,2.66
2018-12-05T07:50:07.948Z,2.80
2018-12-05T07:52:37.854Z,2.85
2018-12-05T07:55:07.846Z,2.88
2018-12-05T07:57:37.925Z,2.95
2018-12-05T08:00:08.049Z,2.92
2018-12-05T08:02:37.826Z,3.12
2018-12-05T08:05:07.675Z,3.25
2018-12-05T08:07:37.488Z,3.35
2018-12-05T08:10:07.287Z,3.54
2018-12-05T08:12:37.041Z,3.62
2018-12-05T08:15:08.158Z,3.53
2018-12-05T08:17:37.902Z,3.45
2018-12-05T08:20:07.864Z,3.25
2018-12-05T08:22:37.702Z,3.32
2018-12-05T08:25:07.482Z,3.39
2018-12-05T08:27:37.295Z,3.29
2018-12-05T08:30:08.020Z,3.41
2018-12-05T08:32:37.721Z,3.55
2018-12-05T08:35:07.606Z,3.43
2018-12-05T08:37:37.440Z,3.24
2018-12-05T08:40:07.178Z,3.28
2018-12-05T08:42:36.960Z,3.23
2018-12-05T08:45:06.943Z,3.40
2018-12-05T08:47:36.683Z,3.45
2018-12-05T08:50:06.626Z,3.52
2018-12-05T08:52:36.452Z,3.74
2018-12-05T08:55:06.427Z,3.70
2018-12-05T08:57:36.177Z,3.61
2018-12-05T09:00:07.394Z,3.85
2018-12-05T09:02:37.522Z,3.73
2018-12-05T09:05:07.851Z,3.73
2018-12-05T09:07:37.672Z,3.69
2018-12-05T09:10:07.561Z,3.64
2018-12-05T09:12:37.360Z,3.75
2018-12-05T09:15:07.577Z,3.83
2018-12-05T09:17:37.407Z,3.85
2018-12-05T09:20:08.143Z,3.96
2018-12-05T09:22:41.168Z,4.08
2018-12-05T09:25:09.802Z,4.02
2018-12-05T09:27:39.756Z,4.11
2018-12-05T09:30:09.819Z,4.14
2018-12-05T09:32:39.623Z,4.16
2018-12-05T09:35:09.982Z,4.26
2018-12-05T09:37:40.002Z,4.17
2018-12-05T09:40:09.910Z,4.22
2018-12-05T09:42:39.764Z,4.13
2018-12-05T09:45:12.630Z,4.19
2018-12-05T09:47:42.535Z,4.28
2018-12-05T09:50:12.238Z,4.44
2018-12-05T09:52:42.187Z,4.59
2018-12-05T09:55:12.144Z,4.53
2018-12-05T09:57:42.102Z,4.52
2018-12-05T10:00:11.903Z,4.49
2018-12-05T10:02:42.075Z,4.62
2018-12-05T10:05:11.958Z,4.59
2018-12-05T10:07:42.598Z,4.54
2018-12-05T10:10:12.410Z,4.55
2018-12-05T10:12:42.159Z,4.49
2018-12-05T10:15:12.054Z,4.56
2018-12-05T10:17:42.815Z,4.65
2018-12-05T10:20:12.618Z,4.62
2018-12-05T10:22:42.475Z,4.76
2018-12-05T10:25:12.193Z,4.79
2018-12-05T10:27:43.329Z,4.80
2018-12-05T10:30:13.406Z,4.85
2018-12-05T10:32:43.213Z,4.88
2018-12-05T10:35:13.986Z,5.04
2018-12-05T10:37:44.278Z,5.08
2018-12-05T10:40:15.089Z,5.38
2018-12-05T10:42:45.127Z,5.19
2018-12-05T10:45:14.949Z,5.22
2018-12-05T10:47:45.043Z,5.24
2018-12-05T10:50:14.839Z,5.32
2018-12-05T10:52:44.652Z,5.40
2018-12-05T10:55:14.538Z,5.33
2018-12-05T10:57:44.483Z,5.24
2018-12-05T11:00:22.523Z,5.39
2018-12-05T11:02:57.775Z,5.56
2018-12-05T11:05:32.998Z,5.49
2018-12-05T11:08:08.338Z,5.47
2018-12-05T11:10:44.718Z,5.51
2018-12-05T11:13:19.974Z,5.54
2018-12-05T11:15:55.242Z,5.64
2018-12-05T11:18:30.284Z,5.56
2018-12-05T11:21:05.363Z,5.81
2018-12-05T11:23:41.645Z,6.09
2018-12-05T11:26:15.323Z,6.13
2018-12-05T11:28:45.166Z,6.25
2018-12-05T11:31:15.038Z,6.36
2018-12-05T11:33:45.249Z,6.21
2018-12-05T11:36:15.252Z,6.18
2018-12-05T11:38:45.014Z,6.15
2018-12-05T11:41:14.906Z,6.13
2018-12-05T11:43:44.725Z,6.06
2018-12-05T11:46:14.498Z,6.07
2018-12-05T11:48:44.205Z,6.11
2018-12-05T11:51:14.043Z,6.02
2018-12-05T11:53:43.799Z,6.14
2018-12-05T11:56:13.664Z,6.07
2018-12-05T11:58:43.582Z,6.24
2018-12-05T12:01:13.392Z,6.23
2018-12-05T12:03:43.310Z,6.20
2018-12-05T12:06:15.220Z,6.34
2018-12-05T12:08:45.198Z,6.36
2018-12-05T12:11:15.006Z,6.51
2018-12-05T12:13:44.978Z,6.47
2018-12-05T12:16:14.826Z,6.54
2018-12-05T12:18:45.570Z,6.53
2018-12-05T12:21:15.306Z,6.50
2018-12-05T12:23:45.175Z,6.51
2018-12-05T12:26:14.895Z,6.66
2018-12-05T12:28:44.736Z,6.60
2018-12-05T12:31:14.438Z,6.73
2018-12-05T12:33:44.160Z,6.80
2018-12-05T12:36:13.950Z,6.94
2018-12-05T12:38:43.659Z,6.95
2018-12-05T12:41:13.467Z,7.18
2018-12-05T12:43:44.275Z,7.15
2018-12-05T12:46:14.022Z,7.48
2018-12-05T12:48:43.974Z,7.62
2018-12-05T12:51:13.783Z,7.61
2018-12-05T12:53:44.536Z,7.62
2018-12-05T12:56:14.771Z,7.57
2018-12-05T12:58:44.588Z,7.51
2018-12-05T13:01:14.394Z,7.32
2018-12-05T13:03:44.351Z,7.17
2018-12-05T13:06:14.047Z,7.23
2018-12-05T13:08:44.047Z,7.02
2018-12-05T13:11:13.871Z,6.94
2018-12-05T13:13:43.575Z,6.82
2018-12-05T13:16:13.278Z,6.87
2018-12-05T13:18:43.043Z,6.79
2018-12-05T13:21:12.847Z,6.86
2018-12-05T13:23:42.658Z,6.88
2018-12-05T13:26:12.458Z,6.94
2018-12-05T13:28:42.372Z,6.82
2018-12-05T13:31:12.114Z,6.86
2018-12-05T13:33:41.883Z,6.87
2018-12-05T13:36:11.946Z,6.81
2018-12-05T13:38:41.658Z,6.84
2018-12-05T13:41:11.502Z,6.86
2018-12-05T13:43:41.259Z,6.91
2018-12-05T13:46:10.951Z,6.95
2018-12-05T13:48:40.785Z,6.91
2018-12-05T13:51:10.799Z,6.83
2018-12-05T13:53:41.807Z,6.72
2018-12-05T13:56:11.556Z,6.69
2018-12-05T13:58:41.421Z,6.79
2018-12-05T14:01:11.289Z,6.68
2018-12-05T14:03:41.208Z,6.60
2018-12-05T14:06:11.010Z,6.54
2018-12-05T14:08:41.454Z,6.48
2018-12-05T14:11:11.154Z,6.51
2018-12-05T14:13:40.882Z,6.51
2018-12-05T14:16:10.754Z,6.40
2018-12-05T14:18:40.655Z,6.37
2018-12-05T14:21:10.347Z,6.30
2018-12-05T14:23:40.050Z,6.21
2018-12-05T14:26:09.819Z,6.11
2018-12-05T14:28:39.771Z,6.05
2018-12-05T14:31:09.526Z,5.96
2018-12-05T14:33:39.478Z,5.89
2018-12-05T14:36:09.175Z,5.75
2018-12-05T14:38:38.999Z,5.74
2018-12-05T14:41:08.802Z,5.70
2018-12-05T14:43:38.505Z,5.68
2018-12-05T14:46:08.419Z,5.57
2018-12-05T14:48:38.140Z,5.47
2018-12-05T14:51:07.854Z,5.35
2018-12-05T14:53:37.555Z,5.24
2018-12-05T14:56:07.275Z,5.27
2018-12-05T14:58:37.138Z,5.19
2018-12-05T15:01:07.115Z,5.12
2018-12-05T15:03:36.846Z,5.12
2018-12-05T15:06:06.646Z,4.98
2018-12-05T15:08:36.467Z,4.91
2018-12-05T15:11:06.402Z,4.84
2018-12-05T15:13:36.094Z,4.78
2018-12-05T15:16:06.095Z,4.78
2018-12-05T15:18:35.902Z,4.82
2018-12-05T15:21:05.655Z,4.75
2018-12-05T15:23:35.427Z,4.70
2018-12-05T15:26:05.142Z,4.64
2018-12-05T15:28:34.942Z,4.67
2018-12-05T15:31:04.854Z,4.61
2018-12-05T15:33:34.691Z,4.62
2018-12-05T15:36:04.455Z,4.53
2018-12-05T15:38:34.302Z,4.62
2018-12-05T15:41:04.258Z,4.59
2018-12-05T15:43:34.023Z,4.48
2018-12-05T15:46:03.961Z,4.41
2018-12-05T15:48:33.762Z,4.51
2018-12-05T15:51:04.718Z,4.61
2018-12-05T15:53:34.415Z,4.65
2018-12-05T15:56:04.355Z,4.59
2018-12-05T15:58:34.050Z,4.54
2018-12-05T16:01:03.917Z,4.53
2018-12-05T16:03:34.757Z,4.52
2018-12-05T16:06:04.709Z,4.58
2018-12-05T16:08:34.747Z,4.63
2018-12-05T16:11:04.998Z,4.70
2018-12-05T16:13:34.707Z,4.70
2018-12-05T16:16:04.495Z,4.73
2018-12-05T16:18:34.323Z,4.78
2018-12-05T16:21:04.154Z,4.85
2018-12-05T16:23:34.149Z,4.99
2018-12-05T16:26:10.552Z,4.98
2018-12-05T16:28:35.847Z,5.07
2018-12-05T16:31:05.566Z,5.11
2018-12-05T16:33:35.352Z,5.17
2018-12-05T16:36:05.295Z,5.23
2018-12-05T16:38:35.035Z,5.33
2018-12-05T16:41:04.969Z,5.37
2018-12-05T16:43:34.735Z,5.44
2018-12-05T16:46:04.616Z,5.49
2018-12-05T16:48:34.326Z,5.50
2018-12-05T16:51:04.142Z,5.52
2018-12-05T16:53:33.949Z,5.64
2018-12-05T16:56:03.766Z,5.71
2018-12-05T16:58:33.572Z,5.75
2018-12-05T17:01:03.393Z,5.78
2018-12-05T17:03:33.100Z,5.76
2018-12-05T17:06:03.610Z,5.80
2018-12-05T17:08:33.555Z,5.81
2018-12-05T17:11:03.395Z,5.84
2018-12-05T17:13:35.134Z,5.89
2018-12-05T17:16:04.915Z,5.94
2018-12-05T17:18:34.711Z,5.98
2018-12-05T17:21:04.521Z,6.05
2018-12-05T17:23:34.527Z,6.05
2018-12-05T17:26:04.524Z,6.08
2018-12-05T17:28:34.259Z,6.07
2018-12-05T17:31:04.067Z,6.05
2018-12-05T17:33:33.800Z,6.02
2018-12-05T17:36:03.839Z,6.09
2018-12-05T17:38:33.528Z,6.04
2018-12-05T17:41:03.391Z,6.16
2018-12-05T17:43:33.191Z,6.30
2018-12-05T17:46:03.229Z,6.24
2018-12-05T17:48:32.925Z,6.22
2018-12-05T17:51:02.818Z,6.17
2018-12-05T17:53:32.525Z,6.18
2018-12-05T17:56:02.283Z,6.13
2018-12-05T17:58:32.003Z,6.16
2018-12-05T18:01:01.835Z,6.22
2018-12-05T18:03:31.543Z,6.24
2018-12-05T18:06:01.543Z,6.20
2018-12-05T18:08:31.398Z,6.21
2018-12-05T18:11:01.288Z,6.18
2018-12-05T18:13:31.030Z,6.23
2018-12-05T18:16:00.723Z,6.20
2018-12-05T18:18:30.585Z,6.17
2018-12-05T18:21:00.481Z,6.16
2018-12-05T18:23:30.475Z,6.10
2018-12-05T18:26:00.320Z,6.07
2018-12-05T18:28:30.258Z,6.05
2018-12-05T18:31:00.048Z,6.02
2018-12-05T18:33:29.980Z,5.98
2018-12-05T18:35:59.899Z,5.92
2018-12-05T18:38:29.713Z,5.96
2018-12-05T18:40:59.590Z,5.98
2018-12-05T18:43:29.318Z,5.98
2018-12-05T18:45:59.375Z,6.04
2018-12-05T18:48:29.197Z,6.03
2018-12-05T18:50:58.961Z,6.11
2018-12-05T18:53:28.895Z,6.08
2018-12-05T18:55:58.707Z,6.14
2018-12-05T18:58:28.479Z,6.28
2018-12-05T19:00:58.415Z,6.53
2018-12-05T19:03:28.421Z,6.60
2018-12-05T19:05:58.345Z,6.92
2018-12-05T19:08:34.280Z,6.89
2018-12-05T19:11:00.142Z,6.79
2018-12-05T19:13:29.931Z,6.83
2018-12-05T19:15:59.750Z,6.93
2018-12-05T19:18:29.540Z,6.89
2018-12-05T19:20:59.886Z,6.92
2018-12-05T19:23:29.779Z,6.86
2018-12-05T19:25:59.502Z,7.04
2018-12-05T19:28:29.222Z,7.12
2018-12-05T19:30:58.935Z,6.99
2018-12-05T19:33:28.657Z,6.98
2018-12-05T19:35:58.447Z,7.06
2018-12-05T19:38:28.354Z,7.13
2018-12-05T19:40:58.234Z,7.09
2018-12-05T19:43:28.034Z,7.09
2018-12-05T19:45:58.243Z,7.16
2018-12-05T19:48:28.050Z,7.13
2018-12-05T19:50:57.879Z,7.10
2018-12-05T19:53:27.586Z,7.08
2018-12-05T19:55:57.588Z,7.02
2018-12-05T19:58:27.476Z,6.97
2018-12-05T20:00:57.294Z,6.94
2018-12-05T20:03:26.998Z,7.00
2018-12-05T20:05:56.843Z,7.07
2018-12-05T20:08:26.534Z,7.07
2018-12-05T20:10:56.336Z,7.08
2018-12-05T20:13:26.014Z,7.08
2018-12-05T20:15:55.852Z,6.96
2018-12-05T20:18:25.665Z,6.92
2018-12-05T20:20:56.830Z,6.89
2018-12-05T20:23:26.538Z,6.88
2018-12-05T20:25:56.334Z,6.83
2018-12-05T20:28:26.063Z,6.92
2018-12-05T20:30:55.858Z,6.95
2018-12-05T20:33:25.618Z,6.91
2018-12-05T20:35:55.459Z,6.85
2018-12-05T20:38:25.251Z,7.09
2018-12-05T20:40:54.951Z,7.04
2018-12-05T20:43:24.770Z,7.07
2018-12-05T20:45:54.718Z,7.13
2018-12-05T20:48:24.426Z,7.13
2018-12-05T20:50:54.368Z,7.23
2018-12-05T20:53:24.149Z,7.16
2018-12-05T20:55:53.986Z,7.29
2018-12-05T20:58:23.734Z,7.34
2018-12-05T21:00:53.572Z,7.23
2018-12-05T21:03:23.578Z,7.14
2018-12-05T21:05:53.299Z,7.03
2018-12-05T21:08:23.070Z,6.96
2018-12-05T21:10:52.766Z,6.79
2018-12-05T21:13:22.474Z,6.66
2018-12-05T21:15:52.184Z,6.40
2018-12-05T21:18:21.918Z,6.15
2018-12-05T21:20:51.614Z,6.08
2018-12-05T21:23:21.327Z,5.98
2018-12-05T21:25:51.128Z,5.86
2018-12-05T21:28:20.874Z,5.82
2018-12-05T21:30:50.673Z,5.80
2018-12-05T21:33:20.452Z,5.74
2018-12-05T21:35:50.238Z,5.63
2018-12-05T21:38:20.015Z,5.61
2018-12-05T21:40:49.748Z,5.64
2018-12-05T21:43:19.642Z,5.67
2018-12-05T21:45:49.337Z,5.66
2018-12-05T21:48:19.058Z,5.62
2018-12-05T21:50:48.791Z,5.73
2018-12-05T21:53:18.503Z,5.74
2018-12-05T21:55:48.286Z,5.68
2018-12-05T21:58:18.096Z,5.77
2018-12-05T22:00:47.855Z,5.78
2018-12-05T22:03:17.560Z,5.78
2018-12-05T22:05:47.258Z,5.80
2018-12-05T22:08:17.065Z,5.88
2018-12-05T22:10:46.850Z,5.92
2018-12-05T22:13:16.558Z,5.90
2018-12-05T22:15:46.251Z,5.87
2018-12-05T22:18:15.967Z,5.85
2018-12-05T22:20:45.694Z,5.83
2018-12-05T22:23:15.578Z,5.84
2018-12-05T22:25:45.373Z,5.83
2018-12-05T22:28:15.099Z,5.83
2018-12-05T22:30:44.795Z,5.86
2018-12-05T22:33:14.584Z,5.97
2018-12-05T22:35:44.475Z,5.95
2018-12-05T22:38:14.217Z,6.04
2018-12-05T22:40:44.006Z,5.99
2018-12-05T22:43:13.706Z,5.96
2018-12-05T22:45:43.496Z,6.02
2018-12-05T22:48:13.247Z,5.98
2018-12-05T22:50:43.059Z,6.01
2018-12-05T22:53:12.772Z,5.94
2018-12-05T22:55:42.454Z,5.98
2018-12-05T22:58:12.268Z,5.92
2018-12-05T23:00:44.858Z,5.94
2018-12-05T23:03:16.509Z,6.04
2018-12-05T23:05:46.258Z,6.06
2018-12-05T23:08:15.971Z,6.06
2018-12-05T23:10:45.847Z,6.17
2018-12-05T23:13:15.632Z,6.33
2018-12-05T23:15:45.394Z,6.35
2018-12-05T23:18:15.242Z,6.37
2018-12-05T23:20:45.062Z,6.40
2018-12-05T23:23:14.818Z,6.48
2018-12-05T23:25:44.518Z,6.57
2018-12-05T23:28:14.262Z,6.75
2018-12-05T23:30:43.961Z,6.86
2018-12-05T23:33:13.703Z,7.06
2018-12-05T23:35:43.398Z,7.11
2018-12-05T23:38:13.207Z,7.13
2018-12-05T23:40:42.895Z,7.17
2018-12-05T23:43:13.602Z,7.18
2018-12-05T23:45:43.354Z,7.27
2018-12-05T23:48:13.114Z,7.40
2018-12-05T23:50:42.994Z,7.37
2018-12-05T23:53:12.714Z,7.30
2018-12-05T23:55:42.523Z,7.34
2018-12-05T23:58:12.231Z,7.32
